Aérodrome :
LOGIN :

S'inscrire | Disclaimer

   EN    FR    IT 

 










Légende :    VFR   VFR Marginal   IFR   IFR Intensif   IFR Très Intensif
Visi : 
Plafond : 
>= 8 km
>= 3000ft
5 à 8 km
1000 à 3000 ft
1500m à 5 km
500 à 1000 ft
800 à 1500m
200 à 500 ft
< 800m
< 200 ft
Symboles :   Orages  Brouillard  Fortes neiges  Fortes précipitations  Vent > 20 kt
SIGMETs :   Divers  Orages  Givrage  Turbulence  Onde Orograph.  Cendres Volcan.






- Altitude de l'aérodrome : -15 ft
- Code IATA : RTM


EHRD - Rotterdam Zestienhoven

DERNIER METAR :
  • 242355Z AUTO 20013KT 160V230 9999 SCT018 BKN022 12/09 Q0993 NOSIG

METARs EXPIRÉS :
  • 242325Z AUTO 19010KT 160V230 9999 FEW016 SCT019 BKN024 13/10 Q0993 NOSIG
  • 242255Z AUTO 18011KT 150V230 9999 FEW020 13/10 Q0993 NOSIG
  • 242225Z AUTO 18014KT 140V210 9999 DZ FEW015CB SCT039 13/10 Q0994 NOSIG
  • 242155Z AUTO 16011KT 9999 NSC 13/11 Q0994 NOSIG
  • 242125Z AUTO 16011KT 9999 FEW015CB 13/11 Q0994 NOSIG

TAF TAF EHRD
Valide du 25 à 00h jusqu'au 26 à 06h UTC


242316Z 2500/2606 18012KT 9999 SCT040
PROB30
TEMPO 2502/2506 20015G25KT 6000 RA SHRA SCT025CB
BECMG 2512/2515 15017KT
PROB40
TEMPO 2512/2520 7000 -SHRA FEW025CB BKN040
BECMG 2516/2519 VRB03KT
BECMG 2522/2601 4000 MIFG BR
PROB30
TEMPO 2601/2606 1400 BCFG



MET'MAP, la Météo Aéronautique d'un coup d'oeil ! - Copyright ORBIFLY Décembre 2007 - Disclaimer

ORBIFLY MET'MAP TEAM :

Programmation & Développement : Alexandra Zaïnal
Sur une idée originale de : Baudouin d'Aumeries
Assistance à la programmation : Marc-Olivier Méhu
Soutien technique & logistique : Manuel Goepfert

Contact : metmap@orbifly.com




SOURCES & CREDITS :

   NOAA